Time;durP1;ratioP1;P1;durP2;ratioP2;P2;SDS_P1;SDS_P2;PMS_P1;PMS_P2;Temp;Humidity;BMP_temperature;BMP_pressure;BME280_temperature;BME280_humidity;BME280_pressure;Samples;Min_cycle;Max_cycle;Signal;HPM_P1;HPM_P2
2023/02/18 00:01:20;;;;;;;89.23;48.60;;;;;;;;;;4376252;32;317843;-83
2023/02/18 00:03:48;;;;;;;85.50;50.27;;;;;;;;;;4386094;32;317649;-81
2023/02/18 00:06:17;;;;;;;93.83;52.90;;;;;;;;;;4376085;32;317653;-82
2023/02/18 00:08:46;;;;;;;102.07;53.57;;;;;;;;;;4385201;32;317536;-81
2023/02/18 00:11:13;;;;;;;86.77;48.07;;;;;;;;;;4375744;32;318882;-79
2023/02/18 00:13:41;;;;;;;101.27;53.63;;;;;;;;;;4385233;32;317780;-79
2023/02/18 00:16:11;;;;;;;81.87;45.60;;;;;;;;;;4376157;32;318637;-80
2023/02/18 00:18:40;;;;;;;79.13;47.27;;;;;;;;;;4385751;32;317974;-80
2023/02/18 00:21:08;;;;;;;81.57;43.77;;;;;;;;;;4375199;32;317960;-81
2023/02/18 00:23:36;;;;;;;71.43;39.17;;;;;;;;;;4384461;32;317843;-81
2023/02/18 00:26:05;;;;;;;87.13;50.77;;;;;;;;;;4374813;32;317922;-82
2023/02/18 00:28:33;;;;;;;97.83;54.17;;;;;;;;;;4385033;32;318064;-82
2023/02/18 00:31:05;;;;;;;81.67;46.80;;;;;;;;;;4375942;32;317888;-81
2023/02/18 00:33:33;;;;;;;91.60;51.73;;;;;;;;;;4384970;32;318146;-81
2023/02/18 00:36:03;;;;;;;76.67;44.47;;;;;;;;;;4374286;32;317945;-81
2023/02/18 00:38:31;;;;;;;94.53;45.87;;;;;;;;;;4384505;32;317664;-82
2023/02/18 00:40:59;;;;;;;72.10;42.67;;;;;;;;;;4375811;32;318020;-81
2023/02/18 00:43:26;;;;;;;73.43;38.37;;;;;;;;;;4385967;32;317969;-81
2023/02/18 00:45:54;;;;;;;78.97;40.07;;;;;;;;;;4383602;32;317792;-81
2023/02/18 00:48:22;;;;;;;73.57;41.30;;;;;;;;;;4372817;32;420162;-81
2023/02/18 00:50:49;;;;;;;77.90;43.77;;;;;;;;;;4384408;32;317919;-80
2023/02/18 00:53:18;;;;;;;68.83;39.07;;;;;;;;;;4375842;32;317843;-78
2023/02/18 00:55:47;;;;;;;85.27;41.63;;;;;;;;;;4385532;32;317666;-81
2023/02/18 00:58:14;;;;;;;78.50;46.07;;;;;;;;;;4372399;32;317805;-80
2023/02/18 01:00:42;;;;;;;73.70;43.07;;;;;;;;;;4382292;32;317872;-81
2023/02/18 01:03:09;;;;;;;79.33;43.53;;;;;;;;;;4375032;32;317898;-79
2023/02/18 01:05:37;;;;;;;78.27;43.40;;;;;;;;;;4385450;32;318031;-81
2023/02/18 01:08:05;;;;;;;82.37;47.40;;;;;;;;;;4377781;32;317993;-81
2023/02/18 01:10:34;;;;;;;95.40;53.17;;;;;;;;;;4387801;32;318144;-81
2023/02/18 01:13:03;;;;;;;103.77;54.00;;;;;;;;;;4376551;32;317736;-82
2023/02/18 01:15:30;;;;;;;115.00;64.77;;;;;;;;;;4387217;32;319168;-81
2023/02/18 01:17:58;;;;;;;111.60;62.70;;;;;;;;;;4362633;32;318916;-81
2023/02/18 01:20:26;;;;;;;105.83;51.47;;;;;;;;;;4385372;32;337624;-80
2023/02/18 01:22:53;;;;;;;73.60;41.53;;;;;;;;;;4387731;32;318794;-80
2023/02/18 01:25:21;;;;;;;76.83;43.13;;;;;;;;;;4376771;32;317820;-80
2023/02/18 01:27:50;;;;;;;77.63;41.57;;;;;;;;;;4387970;32;317806;-81
2023/02/18 01:30:18;;;;;;;73.83;40.47;;;;;;;;;;4377596;32;317823;-80
2023/02/18 01:32:46;;;;;;;75.00;40.93;;;;;;;;;;4387259;32;318266;-81
2023/02/18 01:35:16;;;;;;;67.80;39.93;;;;;;;;;;4376045;32;317905;-80
2023/02/18 01:37:43;;;;;;;78.93;48.73;;;;;;;;;;4385609;32;317697;-80
2023/02/18 01:40:14;;;;;;;77.90;43.97;;;;;;;;;;4377158;32;317857;-81
2023/02/18 01:42:42;;;;;;;70.47;44.13;;;;;;;;;;4387701;32;317804;-81
2023/02/18 01:45:47;;;;;;;75.97;42.73;;;;;;;;;;4377320;32;317966;-81
2023/02/18 01:48:18;;;;;;;73.07;40.57;;;;;;;;;;4376099;32;334658;-80
2023/02/18 01:50:49;;;;;;;79.10;43.83;;;;;;;;;;4392744;32;317712;-81
2023/02/18 01:53:21;;;;;;;86.57;47.27;;;;;;;;;;4386786;32;317495;-79
2023/02/18 01:55:50;;;;;;;85.20;47.17;;;;;;;;;;4388789;27;317906;-93
2023/02/18 01:58:23;;;;;;;88.33;46.90;;;;;;;;;;4366529;32;317336;-93
2023/02/18 02:00:56;;;;;;;80.53;45.53;;;;;;;;;;4377918;32;317084;-92
2023/02/18 02:03:25;;;;;;;69.67;36.87;;;;;;;;;;4337615;32;389425;-93
2023/02/18 02:05:55;;;;;;;62.40;38.73;;;;;;;;;;4376408;32;317417;-93
2023/02/18 02:08:24;;;;;;;68.67;38.60;;;;;;;;;;4340140;32;387927;-93
2023/02/18 02:11:07;;;;;;;68.50;36.00;;;;;;;;;;4375306;32;317300;-93
2023/02/18 02:13:47;;;;;;;60.33;35.30;;;;;;;;;;4352827;32;419969;-93
2023/02/18 02:16:26;;;;;;;66.57;35.73;;;;;;;;;;4345039;32;317884;-93
2023/02/18 02:19:05;;;;;;;65.00;36.33;;;;;;;;;;4355114;32;316049;-92
2023/02/18 02:21:55;;;;;;;64.60;37.67;;;;;;;;;;4345686;32;418780;-93
2023/02/18 02:25:00;;;;;;;60.13;36.97;;;;;;;;;;4350383;32;389027;-92
2023/02/18 02:27:51;;;;;;;75.70;41.37;;;;;;;;;;4356212;32;389851;-92
2023/02/18 02:30:48;;;;;;;67.20;40.10;;;;;;;;;;4363370;32;317388;-92
2023/02/18 02:33:57;;;;;;;60.97;36.23;;;;;;;;;;4361242;32;317559;-93
2023/02/18 02:36:37;;;;;;;78.47;42.00;;;;;;;;;;4359048;32;421080;-93
2023/02/18 02:39:18;;;;;;;72.17;42.20;;;;;;;;;;4374208;32;317647;-93
2023/02/18 02:41:53;;;;;;;81.83;46.13;;;;;;;;;;4390953;32;346829;-93
2023/02/18 02:44:25;;;;;;;85.47;43.57;;;;;;;;;;4366738;32;317829;-92
2023/02/18 02:46:59;;;;;;;84.33;45.23;;;;;;;;;;4358981;32;317406;-93
2023/02/18 02:49:38;;;;;;;98.53;52.40;;;;;;;;;;4375567;32;414995;-92
2023/02/18 02:52:15;;;;;;;129.87;71.13;;;;;;;;;;4372697;32;317598;-92
2023/02/18 02:54:43;;;;;;;136.43;79.43;;;;;;;;;;4392179;32;318537;-92
2023/02/18 02:57:47;;;;;;;155.60;85.27;;;;;;;;;;4377899;32;349857;-92
2023/02/18 03:00:23;;;;;;;172.87;94.70;;;;;;;;;;4383135;32;317491;-94
2023/02/18 03:03:17;;;;;;;194.57;99.57;;;;;;;;;;4386518;32;318307;-92
2023/02/18 03:05:56;;;;;;;187.43;98.23;;;;;;;;;;4369529;32;391685;-93
2023/02/18 03:08:41;;;;;;;191.67;99.10;;;;;;;;;;4347227;32;391735;-93
2023/02/18 03:11:11;;;;;;;183.87;99.93;;;;;;;;;;4391800;32;317210;-92
2023/02/18 03:14:02;;;;;;;187.17;99.37;;;;;;;;;;4398348;32;320533;-92
2023/02/18 03:16:38;;;;;;;187.57;100.17;;;;;;;;;;4380764;32;390050;-93
2023/02/18 03:19:13;;;;;;;181.77;100.03;;;;;;;;;;4378267;32;319220;-92
2023/02/18 03:21:45;;;;;;;185.67;96.47;;;;;;;;;;4416399;32;319315;-92
2023/02/18 03:24:21;;;;;;;177.00;94.40;;;;;;;;;;4386932;32;318522;-91
2023/02/18 03:26:54;;;;;;;181.30;94.90;;;;;;;;;;4403081;32;317084;-92
2023/02/18 03:29:23;;;;;;;173.43;93.77;;;;;;;;;;4397187;32;318337;-92
2023/02/18 03:31:57;;;;;;;187.13;99.97;;;;;;;;;;4416994;32;317155;-92
2023/02/18 03:34:30;;;;;;;208.30;108.00;;;;;;;;;;4399130;32;420230;-90
2023/02/18 03:37:01;;;;;;;194.77;104.77;;;;;;;;;;4410955;32;318084;-91
2023/02/18 03:42:25;;;;;;;159.70;87.93;;;;;;;;;;4396983;32;317001;-92
2023/02/18 03:44:53;;;;;;;175.73;95.40;;;;;;;;;;4394910;32;318288;-93
2023/02/18 03:47:22;;;;;;;180.30;94.07;;;;;;;;;;4382039;32;318601;-92
2023/02/18 03:50:03;;;;;;;189.23;102.33;;;;;;;;;;4392287;32;318763;-92
2023/02/18 03:52:31;;;;;;;196.43;103.00;;;;;;;;;;4381038;32;419357;-93
2023/02/18 03:55:01;;;;;;;176.43;98.20;;;;;;;;;;4375475;32;319399;-92
2023/02/18 03:57:29;;;;;;;192.57;100.63;;;;;;;;;;4398481;32;317384;-91
2023/02/18 03:59:57;;;;;;;192.17;100.40;;;;;;;;;;4406393;32;325788;-92
2023/02/18 04:02:25;;;;;;;191.90;103.03;;;;;;;;;;4371579;32;391530;-92
2023/02/18 04:04:58;;;;;;;204.73;100.97;;;;;;;;;;4391486;32;318725;-92
2023/02/18 04:10:11;;;;;;;174.97;98.27;;;;;;;;;;4371728;32;319539;-92
2023/02/18 04:12:39;;;;;;;195.63;101.67;;;;;;;;;;4404239;32;318595;-92
2023/02/18 04:15:09;;;;;;;188.97;103.63;;;;;;;;;;4390636;32;319512;-93
2023/02/18 04:17:39;;;;;;;180.10;97.43;;;;;;;;;;4378477;32;319640;-92
2023/02/18 04:20:08;;;;;;;146.43;81.00;;;;;;;;;;4387197;32;318334;-91
2023/02/18 04:22:37;;;;;;;142.40;76.37;;;;;;;;;;4389638;32;318835;-91
2023/02/18 04:25:06;;;;;;;119.27;66.80;;;;;;;;;;4376406;32;318579;-92
2023/02/18 04:27:35;;;;;;;106.20;55.73;;;;;;;;;;4390503;32;318632;-92
2023/02/18 04:30:03;;;;;;;90.50;50.70;;;;;;;;;;4387148;32;318765;-92
2023/02/18 04:32:33;;;;;;;109.07;58.83;;;;;;;;;;4392283;32;317350;-91
2023/02/18 04:35:04;;;;;;;120.17;61.63;;;;;;;;;;4388258;32;318776;-92
2023/02/18 04:37:35;;;;;;;121.90;66.67;;;;;;;;;;4380986;32;318682;-92
2023/02/18 04:40:02;;;;;;;125.67;68.47;;;;;;;;;;4389937;32;318573;-92
2023/02/18 04:42:30;;;;;;;145.77;76.57;;;;;;;;;;4406743;32;318556;-92
2023/02/18 04:44:58;;;;;;;127.17;70.93;;;;;;;;;;4396908;32;318373;-92
2023/02/18 04:47:27;;;;;;;124.13;67.60;;;;;;;;;;4399207;32;318697;-91
2023/02/18 04:49:54;;;;;;;115.30;67.77;;;;;;;;;;4397703;32;349508;-92
2023/02/18 04:52:25;;;;;;;150.37;77.27;;;;;;;;;;4383395;32;390475;-92
2023/02/18 04:54:53;;;;;;;140.20;78.23;;;;;;;;;;4395248;32;318321;-91
2023/02/18 04:57:20;;;;;;;143.87;81.77;;;;;;;;;;4373902;32;318700;-91
2023/02/18 04:59:49;;;;;;;151.87;85.60;;;;;;;;;;4407328;32;318394;-92
2023/02/18 05:02:20;;;;;;;162.50;88.23;;;;;;;;;;4396358;32;318502;-92
2023/02/18 05:04:47;;;;;;;176.57;95.90;;;;;;;;;;4381851;32;318450;-92
2023/02/18 05:07:17;;;;;;;168.90;91.90;;;;;;;;;;4397064;32;318468;-91
2023/02/18 05:09:44;;;;;;;186.13;99.13;;;;;;;;;;4393286;32;318740;-91
2023/02/18 05:12:12;;;;;;;164.17;94.43;;;;;;;;;;4397780;32;318727;-91
2023/02/18 05:14:39;;;;;;;186.20;96.57;;;;;;;;;;4394474;32;317426;-93
2023/02/18 05:17:09;;;;;;;173.33;90.63;;;;;;;;;;4395531;32;318414;-92
2023/02/18 05:19:38;;;;;;;166.23;91.93;;;;;;;;;;4382059;32;318519;-92
2023/02/18 05:22:06;;;;;;;172.77;88.93;;;;;;;;;;4375012;32;347319;-93
2023/02/18 05:24:33;;;;;;;161.27;88.83;;;;;;;;;;4392312;32;317422;-92
2023/02/18 05:27:00;;;;;;;172.20;90.83;;;;;;;;;;4394423;32;338549;-92
2023/02/18 05:29:28;;;;;;;168.63;85.53;;;;;;;;;;4393020;32;318403;-92
2023/02/18 05:31:55;;;;;;;134.03;72.70;;;;;;;;;;4393509;32;317622;-92
2023/02/18 05:34:23;;;;;;;116.57;63.63;;;;;;;;;;4372817;32;417804;-92
2023/02/18 05:36:53;;;;;;;112.23;62.70;;;;;;;;;;4379607;32;318714;-92
2023/02/18 05:39:21;;;;;;;118.30;64.50;;;;;;;;;;4383131;32;318465;-91
2023/02/18 05:41:48;;;;;;;148.33;78.47;;;;;;;;;;4385596;32;357794;-92
2023/02/18 05:44:31;;;;;;;133.17;71.17;;;;;;;;;;4373438;32;318716;-92
2023/02/18 05:46:58;;;;;;;135.07;67.30;;;;;;;;;;4382306;32;318801;-91
2023/02/18 05:49:28;;;;;;;164.87;83.87;;;;;;;;;;4396563;32;318433;-91
2023/02/18 05:52:00;;;;;;;161.17;86.33;;;;;;;;;;4385105;32;318348;-94
2023/02/18 05:54:28;;;;;;;149.73;78.43;;;;;;;;;;4398168;32;420931;-93
2023/02/18 05:56:56;;;;;;;139.80;72.13;;;;;;;;;;4397788;32;356271;-91
2023/02/18 05:59:24;;;;;;;164.17;79.07;;;;;;;;;;4397973;32;388677;-90
2023/02/18 06:01:51;;;;;;;137.00;75.30;;;;;;;;;;4390123;32;318745;-93
2023/02/18 06:04:27;;;;;;;132.70;73.03;;;;;;;;;;4369103;32;318507;-91
2023/02/18 06:06:55;;;;;;;194.30;95.70;;;;;;;;;;4396722;32;318583;-93
2023/02/18 06:09:27;;;;;;;223.60;107.27;;;;;;;;;;4394734;32;417536;-91
2023/02/18 06:11:54;;;;;;;200.27;102.50;;;;;;;;;;4386399;32;319460;-91
2023/02/18 06:14:22;;;;;;;172.87;92.87;;;;;;;;;;4370585;32;344477;-91
2023/02/18 06:16:50;;;;;;;166.47;94.87;;;;;;;;;;4394239;32;318417;-91
2023/02/18 06:19:17;;;;;;;169.87;88.87;;;;;;;;;;4393949;32;318487;-91
2023/02/18 06:21:45;;;;;;;166.03;91.27;;;;;;;;;;4394165;32;318480;-91
2023/02/18 06:24:12;;;;;;;204.20;113.80;;;;;;;;;;4375255;32;318507;-91
2023/02/18 06:26:41;;;;;;;184.73;106.47;;;;;;;;;;4371802;32;319738;-93
2023/02/18 06:29:11;;;;;;;185.83;106.67;;;;;;;;;;4371019;32;319611;-91
2023/02/18 06:31:41;;;;;;;192.00;103.23;;;;;;;;;;4407614;32;319623;-92
2023/02/18 06:34:11;;;;;;;220.93;93.33;;;;;;;;;;4373964;32;319588;-91
2023/02/18 06:36:40;;;;;;;160.73;91.20;;;;;;;;;;4386054;32;318877;-90
2023/02/18 06:39:09;;;;;;;196.37;106.27;;;;;;;;;;4375314;32;318501;-91
2023/02/18 06:41:45;;;;;;;179.33;103.80;;;;;;;;;;4391698;32;319558;-92
2023/02/18 06:44:18;;;;;;;198.20;109.27;;;;;;;;;;4380704;32;319658;-91
2023/02/18 06:46:45;;;;;;;203.13;115.17;;;;;;;;;;4394068;32;319779;-92
2023/02/18 06:49:13;;;;;;;211.90;117.93;;;;;;;;;;4374931;32;318428;-92
2023/02/18 06:51:42;;;;;;;207.37;117.33;;;;;;;;;;4389684;32;318493;-92
2023/02/18 06:54:09;;;;;;;196.87;115.77;;;;;;;;;;4382436;32;319590;-92
2023/02/18 06:56:38;;;;;;;204.37;108.40;;;;;;;;;;4389139;32;318621;-91
2023/02/18 06:59:07;;;;;;;191.73;108.33;;;;;;;;;;4403559;32;318178;-92
2023/02/18 07:01:36;;;;;;;184.77;107.67;;;;;;;;;;4417668;32;318621;-91
2023/02/18 07:04:04;;;;;;;183.90;106.47;;;;;;;;;;4399550;32;318596;-91
2023/02/18 07:06:31;;;;;;;175.83;104.20;;;;;;;;;;4406247;32;318137;-93
2023/02/18 07:09:02;;;;;;;220.33;126.53;;;;;;;;;;4406435;32;318203;-92
2023/02/18 07:14:14;;;;;;;242.87;135.97;;;;;;;;;;4396697;32;318469;-92
2023/02/18 07:16:49;;;;;;;246.60;137.13;;;;;;;;;;4416414;32;320138;-92
2023/02/18 07:19:15;;;;;;;232.07;129.50;;;;;;;;;;4393786;32;330053;-93
2023/02/18 07:21:43;;;;;;;252.13;141.40;;;;;;;;;;4401920;32;318238;-92
2023/02/18 07:24:12;;;;;;;291.27;163.13;;;;;;;;;;4384642;32;317388;-91
2023/02/18 07:26:40;;;;;;;260.37;144.27;;;;;;;;;;4392658;32;319480;-92
2023/02/18 07:29:07;;;;;;;249.63;138.53;;;;;;;;;;4389143;32;319540;-92
2023/02/18 07:31:37;;;;;;;225.83;125.90;;;;;;;;;;4385441;32;319621;-92
2023/02/18 07:34:07;;;;;;;206.90;114.83;;;;;;;;;;4394931;32;319386;-91
2023/02/18 07:36:35;;;;;;;161.23;91.13;;;;;;;;;;4400500;32;318265;-91
2023/02/18 07:39:03;;;;;;;133.00;82.53;;;;;;;;;;4398300;32;318765;-92
2023/02/18 07:41:33;;;;;;;131.77;80.53;;;;;;;;;;4396868;32;318231;-92
2023/02/18 07:44:02;;;;;;;140.00;84.07;;;;;;;;;;4401163;32;318291;-91
2023/02/18 07:46:29;;;;;;;151.23;84.73;;;;;;;;;;4409684;32;318243;-93
2023/02/18 07:48:58;;;;;;;142.03;82.43;;;;;;;;;;4387763;32;318711;-92
2023/02/18 07:51:27;;;;;;;146.70;88.93;;;;;;;;;;4390302;32;318370;-92
2023/02/18 07:53:54;;;;;;;154.80;92.20;;;;;;;;;;4384669;32;318698;-92
2023/02/18 07:56:25;;;;;;;157.03;93.27;;;;;;;;;;4375322;32;389009;-92
2023/02/18 07:58:53;;;;;;;155.13;90.70;;;;;;;;;;4418923;32;317084;-92
2023/02/18 08:01:20;;;;;;;168.63;100.27;;;;;;;;;;4384928;32;318203;-91
2023/02/18 08:03:49;;;;;;;194.17;112.07;;;;;;;;;;4409569;32;319370;-92
2023/02/18 08:06:25;;;;;;;184.57;110.27;;;;;;;;;;4383268;32;319483;-93
2023/02/18 08:08:54;;;;;;;201.43;109.60;;;;;;;;;;4394233;32;356332;-92
2023/02/18 08:11:21;;;;;;;191.37;109.20;;;;;;;;;;4383432;32;324768;-94
2023/02/18 08:13:49;;;;;;;193.10;109.10;;;;;;;;;;4393037;32;319662;-90
2023/02/18 08:16:17;;;;;;;180.13;105.43;;;;;;;;;;4367541;32;319599;-93
2023/02/18 08:18:49;;;;;;;187.17;108.03;;;;;;;;;;4407612;32;319740;-92
2023/02/18 08:21:19;;;;;;;184.50;106.60;;;;;;;;;;4401052;32;319721;-91
2023/02/18 08:23:48;;;;;;;153.33;94.27;;;;;;;;;;4406827;32;319620;-92
2023/02/18 08:26:19;;;;;;;147.77;90.13;;;;;;;;;;4386083;32;318535;-93
2023/02/18 08:28:47;;;;;;;154.60;93.03;;;;;;;;;;4395654;32;318382;-91
2023/02/18 08:31:19;;;;;;;165.87;96.03;;;;;;;;;;4389129;32;318401;-92
2023/02/18 08:33:50;;;;;;;168.90;101.70;;;;;;;;;;4384929;32;318485;-91
2023/02/18 08:36:20;;;;;;;182.07;105.27;;;;;;;;;;4395279;32;319982;-93
2023/02/18 08:38:48;;;;;;;161.20;98.40;;;;;;;;;;4398982;32;319298;-92
2023/02/18 08:41:22;;;;;;;170.03;100.23;;;;;;;;;;4399268;32;318691;-93
2023/02/18 08:43:52;;;;;;;165.57;97.43;;;;;;;;;;4409328;32;318472;-93
2023/02/18 08:46:22;;;;;;;157.67;91.47;;;;;;;;;;4389810;32;318417;-92
2023/02/18 08:48:51;;;;;;;196.97;100.10;;;;;;;;;;4407528;32;318567;-93
2023/02/18 08:51:25;;;;;;;121.57;70.47;;;;;;;;;;4396817;32;319698;-93
2023/02/18 08:53:52;;;;;;;111.40;68.47;;;;;;;;;;4393924;32;318485;-93
2023/02/18 08:56:23;;;;;;;132.50;74.33;;;;;;;;;;4359779;32;318384;-92
2023/02/18 08:58:51;;;;;;;113.63;70.60;;;;;;;;;;4395168;32;318572;-92
2023/02/18 09:01:20;;;;;;;122.23;71.30;;;;;;;;;;4390711;32;318620;-93
2023/02/18 09:03:51;;;;;;;123.53;72.50;;;;;;;;;;4410790;32;317328;-91
2023/02/18 09:06:19;;;;;;;126.77;73.03;;;;;;;;;;4371056;32;318414;-93
2023/02/18 09:08:48;;;;;;;121.40;66.50;;;;;;;;;;4400626;32;317344;-92
2023/02/18 09:11:16;;;;;;;134.77;75.00;;;;;;;;;;4378821;32;318434;-93
2023/02/18 09:13:51;;;;;;;189.43;108.13;;;;;;;;;;4407118;32;318467;-92
2023/02/18 09:16:27;;;;;;;189.90;102.33;;;;;;;;;;4396871;32;319415;-93
2023/02/18 09:18:55;;;;;;;170.00;96.87;;;;;;;;;;4385906;32;318413;-93
2023/02/18 09:21:32;;;;;;;164.97;96.00;;;;;;;;;;4370845;32;417264;-93
2023/02/18 09:26:41;;;;;;;137.53;87.03;;;;;;;;;;4388573;32;318794;-93
2023/02/18 09:29:14;;;;;;;121.80;72.23;;;;;;;;;;4388649;32;318666;-94
2023/02/18 09:31:43;;;;;;;96.90;57.83;;;;;;;;;;4408702;32;318441;-92
2023/02/18 09:34:10;;;;;;;110.77;64.37;;;;;;;;;;4376507;32;317691;-92
2023/02/18 09:36:39;;;;;;;93.63;55.80;;;;;;;;;;4395021;32;318379;-92
2023/02/18 09:39:06;;;;;;;97.73;57.53;;;;;;;;;;4386161;32;334363;-92
2023/02/18 09:41:39;;;;;;;103.23;65.97;;;;;;;;;;4409055;32;316436;-92
2023/02/18 09:44:18;;;;;;;107.93;58.43;;;;;;;;;;4398242;32;318358;-93
2023/02/18 09:46:51;;;;;;;85.23;49.80;;;;;;;;;;4400264;32;318371;-92
2023/02/18 09:49:24;;;;;;;103.63;57.33;;;;;;;;;;4377014;32;317448;-93
2023/02/18 09:51:52;;;;;;;101.93;55.47;;;;;;;;;;4404332;32;317540;-92
2023/02/18 09:54:20;;;;;;;114.47;63.60;;;;;;;;;;4398789;32;318852;-92
2023/02/18 09:56:49;;;;;;;123.27;68.10;;;;;;;;;;4405943;32;317521;-93
2023/02/18 09:59:21;;;;;;;106.03;64.63;;;;;;;;;;4370827;32;318513;-94
2023/02/18 10:01:55;;;;;;;233.40;158.50;;;;;;;;;;4381626;32;318640;-93
2023/02/18 10:04:31;;;;;;;91.97;57.93;;;;;;;;;;4388080;32;420491;-93
2023/02/18 10:07:02;;;;;;;90.27;52.80;;;;;;;;;;4384260;32;317534;-93
2023/02/18 10:09:36;;;;;;;88.67;49.53;;;;;;;;;;4407591;32;317226;-93
2023/02/18 10:12:14;;;;;;;63.37;38.47;;;;;;;;;;4376832;32;317161;-93
2023/02/18 10:14:53;;;;;;;54.80;33.13;;;;;;;;;;4401358;32;317384;-93
2023/02/18 10:17:23;;;;;;;52.03;31.53;;;;;;;;;;4397330;32;317636;-93
2023/02/18 10:19:54;;;;;;;52.30;31.60;;;;;;;;;;4405283;32;317443;-93
2023/02/18 10:22:27;;;;;;;44.70;29.10;;;;;;;;;;4397363;32;317923;-94
2023/02/18 10:25:01;;;;;;;40.70;26.53;;;;;;;;;;4405486;32;324699;-94
2023/02/18 10:27:35;;;;;;;43.50;25.07;;;;;;;;;;4394419;32;419978;-93
2023/02/18 10:30:23;;;;;;;47.30;27.33;;;;;;;;;;4397586;32;318401;-93
2023/02/18 10:32:57;;;;;;;44.90;28.13;;;;;;;;;;4409955;32;318056;-94
2023/02/18 10:35:30;;;;;;;51.97;28.77;;;;;;;;;;4397648;32;421947;-93
2023/02/18 10:38:05;;;;;;;42.03;28.37;;;;;;;;;;4399723;32;318432;-93
2023/02/18 10:40:42;;;;;;;42.07;26.73;;;;;;;;;;4411484;32;318490;-93
2023/02/18 10:43:18;;;;;;;51.47;27.57;;;;;;;;;;4407095;32;317180;-93
2023/02/18 10:45:57;;;;;;;45.00;27.87;;;;;;;;;;4404207;32;334939;-95
2023/02/18 10:48:48;;;;;;;57.67;35.50;;;;;;;;;;4373175;32;421175;-94
2023/02/18 10:51:22;;;;;;;55.73;32.23;;;;;;;;;;4371563;32;329994;-94
2023/02/18 10:53:53;;;;;;;54.30;36.40;;;;;;;;;;4412864;32;318406;-91
2023/02/18 10:56:35;;;;;;;50.27;33.80;;;;;;;;;;4372983;32;318468;-92
2023/02/18 10:59:13;;;;;;;62.30;34.23;;;;;;;;;;4380698;32;318341;-93
2023/02/18 11:01:50;;;;;;;53.93;33.57;;;;;;;;;;4405001;32;317274;-93
2023/02/18 11:04:27;;;;;;;57.23;36.60;;;;;;;;;;4396156;32;317265;-93
2023/02/18 11:06:56;;;;;;;72.03;37.60;;;;;;;;;;4398726;32;317292;-93
2023/02/18 11:09:39;;;;;;;62.33;38.57;;;;;;;;;;4394707;32;406325;-92
2023/02/18 11:12:15;;;;;;;51.90;32.60;;;;;;;;;;4364771;32;318295;-92
2023/02/18 11:14:45;;;;;;;51.27;33.93;;;;;;;;;;4399147;32;318281;-93
2023/02/18 11:17:37;;;;;;;55.57;35.13;;;;;;;;;;4393490;32;318208;-92
2023/02/18 11:20:29;;;;;;;57.30;37.03;;;;;;;;;;4390212;32;318516;-93
2023/02/18 11:22:59;;;;;;;64.73;37.53;;;;;;;;;;4403509;32;318343;-92
2023/02/18 11:25:33;;;;;;;56.47;36.07;;;;;;;;;;4381992;32;420890;-93
2023/02/18 11:30:47;;;;;;;54.47;35.17;;;;;;;;;;4418364;32;317249;-93
2023/02/18 11:33:37;;;;;;;70.70;38.87;;;;;;;;;;4400987;32;316172;-93
2023/02/18 11:36:17;;;;;;;60.53;38.40;;;;;;;;;;4394368;32;318023;-93
2023/02/18 11:38:48;;;;;;;64.13;37.47;;;;;;;;;;4401820;32;317380;-93
2023/02/18 11:41:19;;;;;;;58.20;34.03;;;;;;;;;;4397544;32;318477;-92
2023/02/18 11:43:51;;;;;;;52.90;35.03;;;;;;;;;;4395728;32;318302;-92
2023/02/18 11:46:22;;;;;;;47.63;31.67;;;;;;;;;;4401216;32;318336;-93
2023/02/18 11:49:23;;;;;;;47.87;30.70;;;;;;;;;;4395290;32;317398;-93
2023/02/18 11:51:53;;;;;;;39.10;27.97;;;;;;;;;;4385076;32;421799;-92
2023/02/18 11:54:26;;;;;;;41.83;27.63;;;;;;;;;;4391159;32;318568;-93
2023/02/18 11:56:58;;;;;;;38.33;24.83;;;;;;;;;;4401672;32;318299;-93
2023/02/18 11:59:33;;;;;;;38.63;25.90;;;;;;;;;;4394678;32;421997;-93
2023/02/18 12:02:19;;;;;;;38.23;24.17;;;;;;;;;;4391137;32;318555;-92
2023/02/18 12:04:56;;;;;;;39.67;27.13;;;;;;;;;;4392883;32;316336;-93
2023/02/18 12:07:29;;;;;;;42.13;27.83;;;;;;;;;;4390736;32;317488;-93
2023/02/18 12:10:00;;;;;;;44.27;30.47;;;;;;;;;;4399467;32;318659;-92
2023/02/18 12:12:32;;;;;;;45.83;31.60;;;;;;;;;;4362904;32;421964;-93
2023/02/18 12:15:00;;;;;;;55.60;32.37;;;;;;;;;;4375345;32;318550;-93
2023/02/18 12:17:57;;;;;;;54.07;34.27;;;;;;;;;;4375778;32;317271;-93
2023/02/18 12:20:48;;;;;;;52.93;35.20;;;;;;;;;;4357427;32;391375;-92
2023/02/18 12:23:26;;;;;;;51.03;31.63;;;;;;;;;;4363610;32;318478;-92
2023/02/18 12:26:01;;;;;;;46.57;32.10;;;;;;;;;;4373304;32;318393;-93
2023/02/18 12:28:50;;;;;;;47.20;32.63;;;;;;;;;;4357386;32;422424;-93
2023/02/18 12:31:36;;;;;;;53.20;33.77;;;;;;;;;;4365267;32;318494;-93
2023/02/18 12:34:19;;;;;;;55.70;34.70;;;;;;;;;;4365920;32;318522;-93
2023/02/18 12:36:58;;;;;;;61.10;38.60;;;;;;;;;;4375847;32;318336;-93
2023/02/18 12:39:36;;;;;;;60.40;38.57;;;;;;;;;;4349774;32;391685;-93
2023/02/18 12:42:19;;;;;;;58.83;34.37;;;;;;;;;;4371529;32;340289;-93
2023/02/18 12:45:05;;;;;;;51.43;24.20;;;;;;;;;;4383762;32;318398;-93
2023/02/18 12:47:54;;;;;;;34.43;22.10;;;;;;;;;;4352736;32;390837;-93
2023/02/18 12:50:35;;;;;;;28.63;16.73;;;;;;;;;;4361787;32;318600;-92
2023/02/18 12:53:42;;;;;;;29.93;17.13;;;;;;;;;;4363794;32;318464;-92
2023/02/18 12:56:33;;;;;;;23.63;16.30;;;;;;;;;;4365374;32;318607;-92
2023/02/18 12:59:13;;;;;;;26.90;16.67;;;;;;;;;;4357011;32;318279;-92
2023/02/18 13:01:51;;;;;;;29.80;19.43;;;;;;;;;;4363848;32;318261;-93
2023/02/18 13:04:56;;;;;;;29.10;14.33;;;;;;;;;;4370798;32;318409;-91
2023/02/18 13:07:46;;;;;;;25.47;17.70;;;;;;;;;;4346204;32;422711;-93
2023/02/18 13:10:48;;;;;;;19.80;15.73;;;;;;;;;;4355995;32;318626;-93
2023/02/18 13:13:21;;;;;;;39.60;23.07;;;;;;;;;;4353822;32;317505;-92
2023/02/18 13:16:01;;;;;;;36.10;20.47;;;;;;;;;;4395398;32;318452;-93
2023/02/18 13:18:35;;;;;;;34.57;19.87;;;;;;;;;;4381206;32;391494;-93
2023/02/18 13:21:07;;;;;;;32.00;18.80;;;;;;;;;;4377809;32;355819;-94
2023/02/18 13:23:45;;;;;;;34.57;21.67;;;;;;;;;;4400288;32;317257;-92
2023/02/18 13:26:25;;;;;;;31.57;19.30;;;;;;;;;;4370203;32;318436;-92
2023/02/18 13:29:12;;;;;;;41.37;25.60;;;;;;;;;;4389759;32;318400;-94
2023/02/18 13:31:51;;;;;;;28.67;21.03;;;;;;;;;;4379824;32;422026;-92
2023/02/18 13:34:26;;;;;;;34.40;18.57;;;;;;;;;;4378829;32;330160;-93
2023/02/18 13:37:02;;;;;;;28.30;17.23;;;;;;;;;;4390617;32;318305;-93
2023/02/18 13:39:29;;;;;;;28.87;17.50;;;;;;;;;;4382320;32;422447;-92
2023/02/18 13:42:28;;;;;;;28.38;18.10;;;;;;;;;;4391924;32;318776;-93
2023/02/18 13:45:25;;;;;;;35.93;17.10;;;;;;;;;;4387459;32;317483;-93
2023/02/18 13:47:53;;;;;;;23.53;17.37;;;;;;;;;;4357025;32;389416;-92
2023/02/18 13:50:51;;;;;;;40.80;22.73;;;;;;;;;;4362694;32;324051;-93
2023/02/18 13:53:31;;;;;;;30.97;23.40;;;;;;;;;;4387947;32;317548;-93
2023/02/18 13:56:05;;;;;;;35.87;21.07;;;;;;;;;;4388500;32;318347;-94
2023/02/18 13:58:54;;;;;;;36.07;23.60;;;;;;;;;;4398503;32;318294;-94
2023/02/18 14:01:27;;;;;;;37.50;21.37;;;;;;;;;;4376997;32;422450;-93
2023/02/18 14:04:00;;;;;;;36.00;22.17;;;;;;;;;;4410922;32;318189;-94
2023/02/18 14:09:40;;;;;;;36.97;25.80;;;;;;;;;;4390789;32;316263;-93
2023/02/18 14:12:36;;;;;;;35.93;24.90;;;;;;;;;;4387262;32;318329;-94
2023/02/18 14:15:49;;;;;;;53.20;31.10;;;;;;;;;;4400759;32;318314;-94
2023/02/18 14:18:32;;;;;;;48.03;28.57;;;;;;;;;;4392106;32;318122;-93
2023/02/18 14:21:22;;;;;;;48.57;31.17;;;;;;;;;;4402702;32;319885;-94
2023/02/18 14:24:08;;;;;;;49.87;31.10;;;;;;;;;;4392397;32;421838;-94
2023/02/18 14:26:39;;;;;;;62.73;34.60;;;;;;;;;;4397117;32;421213;-94
2023/02/18 14:29:12;;;;;;;58.13;36.17;;;;;;;;;;4386265;32;318649;-93
2023/02/18 14:32:00;;;;;;;62.73;36.13;;;;;;;;;;4401040;32;318129;-93
2023/02/18 14:34:55;;;;;;;60.97;39.17;;;;;;;;;;4387456;32;419330;-93
2023/02/18 14:37:40;;;;;;;62.23;38.53;;;;;;;;;;4391163;32;422411;-93
2023/02/18 14:40:43;;;;;;;63.50;37.83;;;;;;;;;;4397741;32;318296;-93
2023/02/18 14:43:23;;;;;;;37.93;23.67;;;;;;;;;;4400028;32;317084;-93
2023/02/18 14:46:20;;;;;;;31.20;19.13;;;;;;;;;;4403215;32;318556;-94
2023/02/18 14:49:19;;;;;;;46.73;23.43;;;;;;;;;;4361539;32;422245;-92
2023/02/18 14:51:48;;;;;;;33.77;16.70;;;;;;;;;;4384237;32;390256;-93